Time;durP1;ratioP1;P1;durP2;ratioP2;P2;SDS_P1;SDS_P2;PMS_P1;PMS_P2;Temp;Humidity;BMP_temperature;BMP_pressure;BME280_temperature;BME280_humidity;BME280_pressure;Samples;Min_cycle;Max_cycle;Signal;HPM_P1;HPM_P2
2023/12/26 00:00:28;;;;;;;345.15;12.52;;;;;;;22.41;57.02;98482.59;7277559;19;131888;-37
2023/12/26 00:02:54;;;;;;;357.53;13.30;;;;;;;22.39;57.38;98476.72;7274039;19;130402;-43
2023/12/26 00:05:19;;;;;;;331.00;12.40;;;;;;;22.38;57.61;98477.72;7275337;19;130145;-43
2023/12/26 00:07:45;;;;;;;325.67;11.97;;;;;;;22.37;57.38;98476.06;7281107;19;131339;-40
2023/12/26 00:10:11;;;;;;;324.10;11.85;;;;;;;22.34;57.77;98466.78;7276489;19;131898;-39
2023/12/26 00:12:37;;;;;;;;;;;;;;;22.35;58.33;98462.31;7280542;19;130351;-41
2023/12/26 00:15:02;;;;;;;357.55;13.48;;;;;;;22.32;57.69;98465.28;7278810;19;131390;-38
2023/12/26 00:17:28;;;;;;;275.00;10.07;;;;;;;22.35;57.24;98446.63;7280842;19;130806;-39
2023/12/26 00:19:53;;;;;;;377.97;13.73;;;;;;;22.31;57.89;98446.16;7280641;19;130122;-40
2023/12/26 00:22:18;;;;;;;341.50;12.80;;;;;;;22.34;57.42;98437.13;7279604;19;129962;-42
2023/12/26 00:24:44;;;;;;;311.65;11.35;;;;;;;22.30;58.03;98426.19;7280920;19;130170;-40
2023/12/26 00:27:09;;;;;;;317.27;11.80;;;;;;;22.31;58.02;98425.22;7279108;19;133117;-37
2023/12/26 00:29:35;;;;;;;378.50;14.43;;;;;;;22.28;57.81;98409.03;7279721;19;131099;-36
2023/12/26 00:32:00;;;;;;;324.67;11.90;;;;;;;22.27;57.62;98402.16;7279758;19;129752;-35
2023/12/26 00:34:26;;;;;;;309.25;11.93;;;;;;;22.23;57.97;98401.69;7279362;19;131224;-37
2023/12/26 00:36:51;;;;;;;356.27;13.13;;;;;;;22.27;57.93;98396.91;7280105;19;132122;-38
2023/12/26 00:39:16;;;;;;;352.08;13.02;;;;;;;22.11;57.54;98381.31;7280771;19;130677;-37
2023/12/26 00:41:42;;;;;;;300.57;11.00;;;;;;;22.20;58.49;98402.03;7278182;19;131075;-35
2023/12/26 00:44:07;;;;;;;332.83;12.05;;;;;;;22.18;58.42;98408.44;7278407;19;130883;-38
2023/12/26 00:46:33;;;;;;;340.17;12.15;;;;;;;22.19;58.26;98417.91;7279193;19;130427;-37
2023/12/26 00:48:59;;;;;;;357.20;13.37;;;;;;;22.22;58.39;98414.94;7277047;19;129580;-36
2023/12/26 00:51:25;;;;;;;357.95;13.00;;;;;;;22.22;58.96;98404.47;7278344;19;130125;-41
2023/12/26 00:53:51;;;;;;;277.52;10.07;;;;;;;22.23;58.69;98411.34;7277203;19;131885;-40
2023/12/26 00:56:16;;;;;;;394.58;14.65;;;;;;;22.23;58.68;98413.97;7277854;19;131133;-40
2023/12/26 00:58:42;;;;;;;333.00;11.88;;;;;;;22.21;58.16;98408.09;7280689;19;130027;-38
2023/12/26 01:01:08;;;;;;;301.90;11.57;;;;;;;22.18;58.74;98403.19;7276056;19;131414;-38
2023/12/26 01:03:33;;;;;;;292.03;10.20;;;;;;;22.17;58.79;98402.38;7274519;19;131291;-42
2023/12/26 01:05:58;;;;;;;402.67;14.77;;;;;;;22.15;58.64;98398.31;7278341;19;131007;-43
2023/12/26 01:08:24;;;;;;;341.03;12.80;;;;;;;22.02;57.99;98382.31;7275547;19;129578;-41
2023/12/26 01:10:51;;;;;;;331.10;12.03;;;;;;;22.16;58.65;98405.16;7276800;19;131030;-40
2023/12/26 01:13:16;;;;;;;302.23;11.05;;;;;;;22.14;58.47;98401.91;7276903;19;130993;-41
2023/12/26 01:15:42;;;;;;;342.07;12.53;;;;;;;22.18;58.26;98400.59;7280458;19;131662;-43
2023/12/26 01:18:08;;;;;;;254.80;9.40;;;;;;;22.15;58.35;98390.47;7279246;19;134056;-38
2023/12/26 01:20:34;;;;;;;304.17;11.07;;;;;;;22.17;58.15;98402.38;7276588;19;131289;-41
2023/12/26 01:22:59;;;;;;;302.17;10.88;;;;;;;22.06;58.18;98378.41;7275911;19;129852;-40
2023/12/26 01:25:25;;;;;;;402.07;15.40;;;;;;;22.18;58.78;98403.19;7278074;19;131098;-40
2023/12/26 01:27:52;;;;;;;299.03;10.77;;;;;;;22.14;58.17;98396.66;7280870;19;131362;-40
2023/12/26 01:30:19;;;;;;;302.60;11.40;;;;;;;22.14;58.81;98396.66;7278182;19;131383;-41
2023/12/26 01:32:44;;;;;;;413.45;15.60;;;;;;;22.04;58.36;98383.81;7272607;19;131642;-41
2023/12/26 01:35:10;;;;;;;289.00;10.80;;;;;;;22.12;58.79;98393.41;7270136;19;132253;-41
2023/12/26 01:37:35;;;;;;;326.53;12.07;;;;;;;22.12;58.19;98393.41;7268904;19;130709;-39
2023/12/26 01:40:00;;;;;;;506.98;19.30;;;;;;;22.12;58.08;98409.94;7269309;19;130576;-43
2023/12/26 01:42:26;;;;;;;378.20;14.35;;;;;;;22.12;58.48;98398.63;7266623;19;131491;-43
2023/12/26 01:44:51;;;;;;;347.90;12.77;;;;;;;22.12;58.73;98390.78;7265050;19;131642;-37
2023/12/26 01:47:17;;;;;;;371.10;14.10;;;;;;;22.10;58.58;98390.16;7267664;19;131058;-40
2023/12/26 01:49:44;;;;;;;510.50;20.20;;;;;;;22.09;58.64;98393.75;7267373;19;131386;-39
2023/12/26 01:52:10;;;;;;;305.70;11.18;;;;;;;22.10;58.61;98390.16;7268106;19;130841;-44
2023/12/26 01:54:37;;;;;;;290.27;10.60;;;;;;;22.06;58.78;98388.88;7272318;19;130374;-41
2023/12/26 01:57:06;;;;;;;374.17;13.52;;;;;;;22.10;58.81;98395.41;7278771;19;132174;-41
2023/12/26 01:59:34;;;;;;;338.75;12.38;;;;;;;22.09;58.16;98388.50;7278552;19;131987;-38
2023/12/26 02:02:00;;;;;;;299.02;10.65;;;;;;;22.12;58.06;98388.16;7275383;19;132744;-39
2023/12/26 02:04:26;;;;;;;306.93;11.40;;;;;;;22.11;58.68;98391.78;7277660;19;132041;-38
2023/12/26 02:06:51;;;;;;;412.30;14.90;;;;;;;22.13;58.69;98395.03;7277024;19;129756;-36
2023/12/26 02:09:16;;;;;;;423.90;16.77;;;;;;;22.02;57.93;98379.72;7276004;19;130217;-38
2023/12/26 02:11:42;;;;;;;387.67;14.07;;;;;;;22.13;58.47;98393.22;7271150;19;131853;-35
2023/12/26 02:14:09;;;;;;;275.73;9.87;;;;;;;22.11;58.39;98387.38;7276322;19;131346;-37
2023/12/26 02:16:37;;;;;;;319.60;11.75;;;;;;;21.98;57.99;98372.22;7275845;19;129464;-36
2023/12/26 02:19:03;;;;;;;337.80;12.57;;;;;;;22.12;57.83;98391.59;7276825;19;131181;-37
2023/12/26 02:21:29;;;;;;;323.92;12.18;;;;;;;22.12;58.06;98385.53;7272404;19;131312;-37
2023/12/26 02:23:58;;;;;;;312.02;11.10;;;;;;;22.12;58.09;98382.94;7278075;19;130699;-36
2023/12/26 02:26:26;;;;;;;337.80;12.13;;;;;;;22.12;57.78;98380.31;7277670;19;130411;-37
2023/12/26 02:28:53;;;;;;;313.63;11.52;;;;;;;22.11;57.79;98383.94;7277048;19;129097;-36
2023/12/26 02:31:20;;;;;;;307.48;10.98;;;;;;;22.11;58.28;98376.91;7275426;19;130573;-35
2023/12/26 02:33:46;;;;;;;;;;;;;;;22.09;59.13;98372.81;7275639;19;131501;-38
2023/12/26 02:36:12;;;;;;;371.23;13.45;;;;;;;22.12;57.82;98369.84;7277436;19;131366;-38
2023/12/26 02:38:37;;;;;;;306.10;11.03;;;;;;;22.11;57.98;98355.13;7277814;19;130794;-36
2023/12/26 02:41:03;;;;;;;319.27;11.40;;;;;;;22.09;58.75;98351.88;7272667;19;129426;-36
2023/12/26 02:43:28;;;;;;;304.07;11.17;;;;;;;22.09;58.13;98346.63;7271715;19;130307;-38
2023/12/26 02:45:54;;;;;;;350.75;12.27;;;;;;;22.08;58.41;98339.78;7277556;19;130787;-38
2023/12/26 02:48:19;;;;;;;286.08;10.35;;;;;;;22.07;58.63;98338.97;7277869;19;129781;-38
2023/12/26 02:50:45;;;;;;;295.67;10.50;;;;;;;22.08;58.38;98326.69;7277061;19;130158;-38
2023/12/26 02:53:11;;;;;;;305.20;10.93;;;;;;;22.07;58.70;98340.75;7273065;19;130554;-38
2023/12/26 02:55:37;;;;;;;376.47;13.53;;;;;;;22.05;58.10;98330.47;7273962;19;130694;-38
2023/12/26 02:58:03;;;;;;;318.70;11.32;;;;;;;22.06;58.60;98328.66;7284057;19;131239;-38
2023/12/26 03:00:29;;;;;;;342.50;12.68;;;;;;;22.05;58.52;98329.66;7281825;19;131221;-36
2023/12/26 03:02:55;;;;;;;330.33;11.63;;;;;;;22.05;58.23;98334.91;7280930;19;132518;-38
2023/12/26 03:05:20;;;;;;;342.93;12.10;;;;;;;22.04;58.66;98328.84;7284328;19;131126;-38
2023/12/26 03:07:45;;;;;;;277.90;9.87;;;;;;;21.94;58.67;98299.47;7284990;19;131326;-38
2023/12/26 03:10:11;;;;;;;254.87;9.10;;;;;;;22.03;58.00;98314.13;7281809;19;132386;-38
2023/12/26 03:12:37;;;;;;;351.53;12.60;;;;;;;21.88;58.59;98284.47;7278998;19;130296;-37
2023/12/26 03:15:03;;;;;;;366.30;13.10;;;;;;;22.02;58.07;98315.09;7282263;19;131857;-38
2023/12/26 03:17:29;;;;;;;335.38;12.38;;;;;;;21.98;58.63;98306.00;7283129;19;131887;-37
2023/12/26 03:19:54;;;;;;;281.43;10.07;;;;;;;22.02;57.89;98307.25;7280700;19;132066;-37
2023/12/26 03:22:20;;;;;;;365.47;13.17;;;;;;;22.01;58.14;98307.44;7277114;19;130508;-37
2023/12/26 03:24:46;;;;;;;303.50;10.60;;;;;;;22.00;58.53;98300.56;7284420;19;131754;-37
2023/12/26 03:27:11;;;;;;;296.83;10.80;;;;;;;21.88;58.01;98281.84;7280028;19;129844;-37
2023/12/26 03:29:38;;;;;;;364.50;14.13;;;;;;;21.98;58.29;98300.75;7281115;19;130948;-37
2023/12/26 03:32:03;;;;;;;380.65;13.57;;;;;;;21.98;57.96;98297.31;7279150;19;132227;-37
2023/12/26 03:34:29;;;;;;;316.50;11.30;;;;;;;21.98;58.04;98297.31;7283351;19;130736;-38
2023/12/26 03:36:54;;;;;;;378.33;14.77;;;;;;;21.94;58.70;98295.06;7279686;19;130353;-38
2023/12/26 03:39:20;;;;;;;313.73;11.00;;;;;;;21.96;58.12;98290.44;7279218;19;129885;-38
2023/12/26 03:41:48;;;;;;;364.63;12.80;;;;;;;21.96;58.56;98287.81;7279644;19;130871;-37
2023/12/26 03:44:15;;;;;;;345.33;12.75;;;;;;;21.95;58.45;98304.53;7281464;19;129638;-37
2023/12/26 03:46:41;;;;;;;315.60;11.27;;;;;;;21.95;58.09;98312.38;7282584;19;130820;-37
2023/12/26 03:49:06;;;;;;;303.97;10.63;;;;;;;21.95;58.46;98303.69;7280296;19;130223;-37
2023/12/26 03:51:32;;;;;;;389.02;14.07;;;;;;;21.93;58.22;98311.72;7280614;19;134900;-37
2023/12/26 03:53:57;;;;;;;292.23;10.20;;;;;;;21.93;58.87;98311.72;7281549;19;130786;-38
2023/12/26 03:56:23;;;;;;;392.90;14.40;;;;;;;21.93;58.21;98311.72;7278062;19;130060;-38
2023/12/26 03:58:48;;;;;;;317.87;11.33;;;;;;;21.93;58.92;98309.09;7280502;19;131101;-37
2023/12/26 04:01:13;;;;;;;330.27;11.87;;;;;;;21.93;58.36;98322.19;7279982;19;131310;-38
2023/12/26 04:03:39;;;;;;;271.63;9.57;;;;;;;21.91;58.33;98321.53;7280590;19;129112;-37
2023/12/26 04:06:04;;;;;;;303.67;10.87;;;;;;;21.92;58.91;98325.81;7281969;19;130552;-38
2023/12/26 04:08:30;;;;;;;365.37;13.43;;;;;;;21.92;58.85;98319.75;7278758;19;131697;-38
2023/12/26 04:10:55;;;;;;;289.50;10.50;;;;;;;21.92;58.25;98319.75;7281400;19;130502;-37
2023/12/26 04:13:21;;;;;;;292.70;10.37;;;;;;;21.90;58.80;98330.38;7279742;19;130487;-37
2023/12/26 04:15:46;;;;;;;232.63;8.25;;;;;;;21.91;58.13;98325.97;7281686;19;131165;-37
2023/12/26 04:18:12;;;;;;;355.27;12.23;;;;;;;21.91;58.22;98324.16;7280729;19;130265;-37
2023/12/26 04:20:37;;;;;;;341.65;12.48;;;;;;;21.78;58.14;98313.44;7280532;19;132615;-37
2023/12/26 04:23:03;;;;;;;329.45;11.88;;;;;;;21.90;58.92;98322.53;7280127;19;131174;-37
2023/12/26 04:25:28;;;;;;;339.00;12.23;;;;;;;21.91;58.85;98328.59;7281207;19;130378;-37
2023/12/26 04:27:54;;;;;;;337.77;11.80;;;;;;;21.86;58.31;98331.72;7276287;19;130795;-37
2023/12/26 04:30:19;;;;;;;288.30;10.27;;;;;;;21.84;58.75;98315.38;7281845;19;131209;-37
2023/12/26 04:32:45;;;;;;;402.58;15.07;;;;;;;21.87;58.20;98335.16;7278683;19;129851;-37
2023/12/26 04:35:11;;;;;;;297.35;10.48;;;;;;;21.88;58.82;98344.66;7280326;19;131550;-38
2023/12/26 04:37:36;;;;;;;395.98;14.00;;;;;;;21.87;58.70;98348.22;7278799;19;130911;-37
2023/12/26 04:40:02;;;;;;;275.90;9.97;;;;;;;21.82;58.24;98351.38;7279688;19;131656;-38
2023/12/26 04:42:28;;;;;;;275.20;10.00;;;;;;;22.13;57.77;98358.41;7278815;19;129921;-38
2023/12/26 04:44:54;;;;;;;313.50;11.13;;;;;;;22.48;56.65;98357.81;7280441;19;130046;-38
2023/12/26 04:47:19;;;;;;;314.63;11.33;;;;;;;23.11;55.09;98360.91;7280243;19;130344;-36
2023/12/26 04:49:45;;;;;;;361.90;13.60;;;;;;;23.88;53.03;98370.84;7280053;19;130612;-37
2023/12/26 04:52:11;;;;;;;304.97;10.97;;;;;;;24.45;51.80;98360.41;7278833;19;131696;-35
2023/12/26 04:54:36;;;;;;;286.30;10.47;;;;;;;24.94;50.20;98371.78;7280629;19;129712;-34
2023/12/26 04:57:02;;;;;;;344.73;12.30;;;;;;;25.32;49.01;98356.47;7277784;19;130922;-37
2023/12/26 04:59:27;;;;;;;307.10;11.00;;;;;;;25.51;48.47;98361.06;7278602;19;130662;-37
2023/12/26 05:01:52;;;;;;;280.30;10.03;;;;;;;25.75;48.22;98360.56;7276215;19;129911;-34
2023/12/26 05:04:18;;;;;;;343.90;12.00;;;;;;;25.86;47.88;98349.47;7280039;19;130202;-37
2023/12/26 05:06:43;;;;;;;376.30;13.93;;;;;;;25.97;46.75;98350.72;7279753;19;131252;-38
2023/12/26 05:09:09;;;;;;;295.00;10.80;;;;;;;25.94;47.68;98353.75;7277356;19;130657;-37
2023/12/26 05:11:34;;;;;;;289.07;10.40;;;;;;;25.89;47.34;98350.91;7278365;19;130037;-38
2023/12/26 05:14:00;;;;;;;386.90;14.27;;;;;;;25.58;47.52;98331.13;7278946;19;131261;-38
2023/12/26 05:16:25;;;;;;;305.70;10.90;;;;;;;25.56;48.20;98340.22;7279712;19;130103;-38
2023/12/26 05:18:51;;;;;;;321.73;11.73;;;;;;;25.47;48.60;98355.38;7278869;19;130609;-38
2023/12/26 05:21:23;;;;;;;318.27;11.57;;;;;;;25.52;48.79;98357.41;7274192;19;130181;-38
2023/12/26 05:23:49;;;;;;;343.25;12.27;;;;;;;25.58;48.18;98346.13;7276447;19;130750;-36
2023/12/26 05:26:15;;;;;;;304.97;11.00;;;;;;;25.59;48.20;98337.22;7279477;19;131279;-36
2023/12/26 05:28:41;;;;;;;337.00;12.53;;;;;;;25.68;48.47;98343.94;7278170;19;131286;-35
2023/12/26 05:31:06;;;;;;;341.90;12.67;;;;;;;25.78;47.80;98336.50;7276659;19;130744;-35
2023/12/26 05:33:32;;;;;;;354.50;12.67;;;;;;;25.90;47.82;98342.00;7276334;19;131059;-38
2023/12/26 05:35:59;;;;;;;264.97;9.50;;;;;;;25.88;47.73;98334.31;7280261;19;129632;-35
2023/12/26 05:38:24;;;;;;;275.23;10.10;;;;;;;25.96;47.08;98334.13;7279234;19;131744;-35
2023/12/26 05:40:50;;;;;;;273.77;9.90;;;;;;;25.80;47.13;98313.38;7276468;19;131203;-37
2023/12/26 05:43:15;;;;;;;371.70;13.73;;;;;;;25.87;47.47;98327.41;7274109;19;130123;-34
2023/12/26 05:45:41;;;;;;;311.27;11.60;;;;;;;25.73;47.67;98325.75;7278200;19;130978;-35
2023/12/26 05:48:06;;;;;;;316.90;11.37;;;;;;;25.56;48.66;98327.06;7278447;19;129877;-38
2023/12/26 05:50:32;;;;;;;319.80;11.97;;;;;;;25.42;48.89;98322.78;7277478;19;131998;-38
2023/12/26 05:52:57;;;;;;;321.90;11.47;;;;;;;25.26;49.07;98326.50;7276581;19;131557;-34
2023/12/26 05:55:22;;;;;;;274.57;9.93;;;;;;;24.97;49.56;98316.19;7278892;19;130188;-36
2023/12/26 05:57:48;;;;;;;299.57;10.83;;;;;;;24.91;50.40;98334.53;7275822;19;132420;-40
2023/12/26 06:00:14;;;;;;;379.17;14.77;;;;;;;24.72;50.62;98350.97;7274875;19;130751;-36
2023/12/26 06:02:39;;;;;;;349.20;12.82;;;;;;;24.61;50.50;98351.47;7274753;19;131246;-35
2023/12/26 06:05:06;;;;;;;306.17;11.13;;;;;;;24.45;51.10;98358.59;7276703;19;130993;-38
2023/12/26 06:07:31;;;;;;;329.67;12.23;;;;;;;24.27;51.95;98360.84;7277004;19;131280;-42
2023/12/26 06:09:57;;;;;;;321.23;11.50;;;;;;;24.03;52.12;98353.28;7275595;19;131389;-39
2023/12/26 06:12:23;;;;;;;281.60;10.13;;;;;;;24.06;52.25;98362.63;7277216;19;129761;-40
2023/12/26 06:14:48;;;;;;;364.33;14.33;;;;;;;23.96;53.00;98365.53;7275194;19;131354;-42
2023/12/26 06:17:13;;;;;;;289.80;10.23;;;;;;;23.87;53.18;98377.13;7273963;19;130459;-37
2023/12/26 06:19:39;;;;;;;709.00;29.53;;;;;;;23.71;53.60;98366.00;7269939;19;130236;-42
2023/12/26 06:22:04;;;;;;;361.20;13.15;;;;;;;23.67;53.54;98380.50;7271665;19;133042;-41
2023/12/26 06:24:30;;;;;;;343.70;12.00;;;;;;;23.40;53.56;98366.22;7272967;19;132724;-42
2023/12/26 06:26:55;;;;;;;328.45;11.60;;;;;;;23.43;53.76;98384.22;7270754;19;132216;-40
2023/12/26 06:29:20;;;;;;;396.30;14.33;;;;;;;23.22;54.37;98355.25;7271027;19;129876;-42
2023/12/26 06:31:46;;;;;;;378.57;14.17;;;;;;;23.27;54.33;98381.75;7274368;19;130299;-42
2023/12/26 06:34:11;;;;;;;329.25;11.82;;;;;;;23.18;54.93;98388.03;7279726;19;130991;-42
2023/12/26 06:36:37;;;;;;;358.35;12.90;;;;;;;23.14;54.69;98397.25;7278978;19;130902;-41
2023/12/26 06:39:03;;;;;;;379.97;13.77;;;;;;;23.06;55.66;98389.47;7278705;19;131337;-41
2023/12/26 06:41:29;;;;;;;340.97;12.33;;;;;;;23.00;55.32;98385.75;7278076;19;129694;-39
2023/12/26 06:43:55;;;;;;;378.30;13.73;;;;;;;22.97;55.59;98406.28;7277466;19;132487;-40
2023/12/26 06:46:21;;;;;;;344.50;12.27;;;;;;;22.76;55.49;98382.50;7278932;19;131142;-43
2023/12/26 06:48:47;;;;;;;422.87;15.33;;;;;;;22.85;56.03;98397.19;7278922;19;129982;-41
2023/12/26 06:51:15;;;;;;;364.63;13.05;;;;;;;22.81;55.62;98393.28;7278774;19;130433;-40
2023/12/26 06:53:44;;;;;;;339.40;12.20;;;;;;;22.79;56.47;98397.91;7275985;19;130784;-41
2023/12/26 06:56:09;;;;;;;287.55;10.13;;;;;;;22.77;55.76;98400.69;7278997;19;131934;-41
2023/12/26 06:58:34;;;;;;;415.07;15.07;;;;;;;22.84;56.27;98400.81;7279119;19;129746;-42
2023/12/26 07:01:07;;;;;;;327.45;12.30;;;;;;;22.87;55.74;98396.00;7277463;19;130947;-42
2023/12/26 07:03:32;;;;;;;329.13;11.80;;;;;;;22.94;55.69;98412.66;7275174;19;130149;-41
2023/12/26 07:05:58;;;;;;;358.60;12.83;;;;;;;22.97;55.36;98401.03;7278706;19;130968;-42
2023/12/26 07:08:23;;;;;;;359.00;12.77;;;;;;;23.06;54.96;98421.75;7278459;19;130633;-40
2023/12/26 07:10:49;;;;;;;345.33;12.27;;;;;;;23.12;55.27;98414.97;7275559;19;129594;-41
2023/12/26 07:13:15;;;;;;;311.42;10.98;;;;;;;23.17;55.43;98423.13;7274867;19;131038;-41
2023/12/26 07:15:42;;;;;;;460.80;17.53;;;;;;;23.20;54.69;98420.94;7272979;19;130221;-42
2023/12/26 07:18:08;;;;;;;374.40;13.63;;;;;;;23.32;54.14;98429.22;7278607;19;130101;-41
2023/12/26 07:20:34;;;;;;;;;;;;;;;23.32;54.87;98437.09;7273686;19;131325;-42
2023/12/26 07:22:59;;;;;;;307.67;10.87;;;;;;;23.38;54.83;98436.41;7270220;19;131909;-40
2023/12/26 07:25:24;;;;;;;339.70;12.00;;;;;;;23.40;54.10;98439.66;7277709;19;132169;-39
2023/12/26 07:27:50;;;;;;;405.60;14.40;;;;;;;23.47;54.38;98451.03;7278194;19;130753;-40
2023/12/26 07:30:15;;;;;;;360.93;12.97;;;;;;;23.47;53.84;98466.78;7278156;19;129765;-42
2023/12/26 07:32:41;;;;;;;287.40;10.43;;;;;;;23.47;53.71;98472.03;7275209;19;131590;-40
2023/12/26 07:35:06;;;;;;;401.37;14.17;;;;;;;23.42;53.73;98453.38;7276974;19;133508;-41
2023/12/26 07:37:32;;;;;;;379.20;13.63;;;;;;;23.52;53.69;98474.94;7276360;19;129688;-41
2023/12/26 07:39:57;;;;;;;355.20;12.83;;;;;;;23.57;53.85;98475.22;7276880;19;130520;-41
2023/12/26 07:42:23;;;;;;;383.37;14.03;;;;;;;23.59;53.70;98485.53;7268710;19;131132;-43
2023/12/26 07:44:48;;;;;;;411.40;15.20;;;;;;;23.59;54.10;98491.59;7272800;19;129636;-39
2023/12/26 07:47:15;;;;;;;383.67;13.85;;;;;;;23.59;53.95;98494.22;7271604;19;130335;-43
2023/12/26 07:49:40;;;;;;;;;;;;;;;23.60;53.89;98476.69;7273542;19;132030;-40
2023/12/26 07:52:05;;;;;;;367.20;13.10;;;;;;;23.66;53.99;98516.13;7274491;19;132603;-42
2023/12/26 07:54:31;;;;;;;375.30;13.18;;;;;;;23.65;53.62;98505.81;7270961;19;131229;-40
2023/12/26 07:56:56;;;;;;;359.42;12.55;;;;;;;23.64;53.94;98501.53;7272685;19;133245;-43
2023/12/26 07:59:22;;;;;;;338.13;12.23;;;;;;;23.67;53.75;98494.13;7275201;19;131148;-41
2023/12/26 08:01:47;;;;;;;314.73;11.67;;;;;;;23.65;53.88;98501.38;7274457;19;131723;-41
2023/12/26 08:04:13;;;;;;;409.23;14.77;;;;;;;23.59;53.75;98491.59;7270308;19;130298;-40
2023/12/26 08:06:38;;;;;;;378.87;13.67;;;;;;;23.67;54.05;98517.75;7274920;19;130576;-42
2023/12/26 08:09:04;;;;;;;345.67;12.37;;;;;;;23.57;53.81;98509.31;7275321;19;131927;-39
2023/12/26 08:11:29;;;;;;;346.70;12.50;;;;;;;23.69;53.69;98539.38;7272156;19;130640;-38
2023/12/26 08:13:55;;;;;;;329.83;11.70;;;;;;;23.66;53.86;98533.69;7276857;19;131233;-39
2023/12/26 08:16:20;;;;;;;361.20;13.10;;;;;;;23.65;53.20;98530.22;7272101;19;129440;-42
2023/12/26 08:18:46;;;;;;;286.77;10.48;;;;;;;23.61;53.47;98526.34;7277482;19;130528;-39
2023/12/26 08:21:11;;;;;;;387.40;13.80;;;;;;;23.51;53.86;98520.53;7272890;19;131874;-43
2023/12/26 08:23:36;;;;;;;398.80;14.70;;;;;;;23.67;53.81;98528.25;7270437;19;132707;-42
2023/12/26 08:26:06;;;;;;;285.33;10.30;;;;;;;23.52;53.30;98516.91;7273917;19;129525;-41
2023/12/26 08:28:31;;;;;;;502.52;20.00;;;;;;;23.64;53.61;98551.41;7270598;19;130223;-39
2023/12/26 08:30:57;;;;;;;314.27;11.27;;;;;;;23.62;53.34;98551.59;7273165;19;130331;-39
2023/12/26 08:33:22;;;;;;;360.07;13.07;;;;;;;23.69;53.15;98557.75;7276125;19;131252;-41
2023/12/26 08:35:48;;;;;;;429.10;16.10;;;;;;;23.67;53.30;98565.00;7268699;19;132057;-40
2023/12/26 08:38:13;;;;;;;300.83;10.63;;;;;;;23.63;53.26;98576.84;7275001;19;132110;-42
2023/12/26 08:40:39;;;;;;;380.45;13.75;;;;;;;23.63;54.02;98570.78;7271352;19;130906;-43
2023/12/26 08:43:04;;;;;;;327.60;11.63;;;;;;;23.66;53.25;98566.00;7271398;19;131562;-40
2023/12/26 08:45:31;;;;;;;377.90;13.88;;;;;;;23.83;53.46;98583.19;7275131;19;130813;-39
2023/12/26 08:47:58;;;;;;;351.00;12.43;;;;;;;24.01;52.81;98570.63;7275286;19;131210;-40
2023/12/26 08:50:24;;;;;;;355.08;12.27;;;;;;;24.17;52.13;98570.44;7274079;19;131056;-40
2023/12/26 08:52:50;;;;;;;518.03;21.07;;;;;;;24.38;51.92;98583.66;7272315;19;130931;-43
2023/12/26 08:55:16;;;;;;;353.20;12.50;;;;;;;24.52;51.47;98578.56;7271817;19;130060;-40
2023/12/26 08:57:41;;;;;;;324.23;11.95;;;;;;;24.66;51.32;98575.13;7277505;19;129240;-41
2023/12/26 09:00:09;;;;;;;404.50;14.37;;;;;;;24.81;50.77;98578.56;7270154;19;131518;-44
2023/12/26 09:02:35;;;;;;;311.48;11.10;;;;;;;24.96;49.64;98581.94;7273762;19;131155;-43
2023/12/26 09:05:00;;;;;;;434.63;16.40;;;;;;;24.95;50.37;98593.47;7270677;19;131223;-42
2023/12/26 09:07:26;;;;;;;349.43;12.37;;;;;;;24.96;50.35;98589.84;7273954;19;130268;-41
2023/12/26 09:09:51;;;;;;;505.60;19.97;;;;;;;24.91;49.82;98600.09;7269424;19;130965;-38
2023/12/26 09:12:17;;;;;;;316.40;11.53;;;;;;;24.83;50.48;98592.31;7271598;19;131728;-39
2023/12/26 09:14:42;;;;;;;383.83;14.23;;;;;;;24.77;50.09;98608.84;7273255;19;130979;-40
2023/12/26 09:17:08;;;;;;;468.57;17.60;;;;;;;24.68;50.70;98615.19;7267425;19;130927;-42
2023/12/26 09:19:33;;;;;;;347.77;12.33;;;;;;;24.60;51.20;98623.13;7274407;19;131257;-41
2023/12/26 09:21:58;;;;;;;328.73;11.90;;;;;;;24.48;51.78;98640.38;7274943;19;131972;-41
2023/12/26 09:24:24;;;;;;;503.93;19.50;;;;;;;24.40;51.32;98649.97;7266530;19;131770;-43
2023/12/26 09:26:49;;;;;;;347.17;12.93;;;;;;;24.25;51.95;98630.75;7276285;19;130027;-37
2023/12/26 09:29:15;;;;;;;425.37;15.50;;;;;;;24.29;51.74;98665.38;7271442;19;130878;-41
2023/12/26 09:31:40;;;;;;;369.77;13.37;;;;;;;24.09;52.02;98659.81;7262781;19;130645;-44
2023/12/26 09:34:05;;;;;;;320.30;11.23;;;;;;;24.08;52.47;98657.38;7269181;19;130932;-40
2023/12/26 09:36:31;;;;;;;410.13;14.87;;;;;;;24.00;52.30;98668.75;7263781;19;130165;-42
2023/12/26 09:38:56;;;;;;;412.65;15.57;;;;;;;23.93;53.20;98672.25;7272961;19;131235;-42
2023/12/26 09:41:26;;;;;;;381.50;14.10;;;;;;;23.86;52.93;98681.81;7270784;19;131718;-43
2023/12/26 09:43:53;;;;;;;415.90;15.30;;;;;;;23.78;53.47;98680.06;7265869;19;130213;-40
2023/12/26 09:46:19;;;;;;;470.98;18.13;;;;;;;23.74;53.30;98688.44;7270274;19;131677;-41
2023/12/26 09:48:45;;;;;;;422.17;15.27;;;;;;;23.65;53.10;98698.19;7263267;19;131311;-43
2023/12/26 09:51:18;;;;;;;281.13;10.20;;;;;;;23.60;53.73;98700.50;7269839;19;131046;-43
2023/12/26 09:53:44;;;;;;;315.65;11.77;;;;;;;23.55;53.60;98694.97;7271208;19;131606;-39
2023/12/26 09:56:10;;;;;;;350.73;12.60;;;;;;;23.51;53.50;98693.69;7265323;19;131437;-39
2023/12/26 09:58:42;;;;;;;389.50;14.10;;;;;;;23.51;53.72;98693.69;7273361;19;131252;-40
2023/12/26 10:01:11;;;;;;;326.92;11.68;;;;;;;23.44;53.84;98703.25;7272087;19;131455;-41
2023/12/26 10:03:37;;;;;;;344.45;12.15;;;;;;;23.40;54.15;98722.13;7265639;19;130233;-41
2023/12/26 10:06:03;;;;;;;355.67;12.98;;;;;;;23.34;54.14;98707.09;7266477;19;129978;-42
2023/12/26 10:08:29;;;;;;;383.40;13.87;;;;;;;23.23;54.43;98695.13;7271553;19;132239;-41
2023/12/26 10:10:54;;;;;;;340.00;12.32;;;;;;;23.28;54.63;98708.59;7274383;19;131234;-39
2023/12/26 10:13:20;;;;;;;355.63;13.00;;;;;;;23.25;55.25;98724.63;7267427;19;131086;-40
2023/12/26 10:15:45;;;;;;;385.98;14.05;;;;;;;23.20;54.80;98726.94;7269611;19;131242;-41
2023/12/26 10:18:11;;;;;;;366.23;13.33;;;;;;;23.03;55.11;98709.66;7266005;19;130495;-42
2023/12/26 10:20:36;;;;;;;334.50;11.97;;;;;;;23.15;55.43;98740.56;7271518;19;130921;-39
2023/12/26 10:23:03;;;;;;;361.75;12.93;;;;;;;23.11;55.06;98754.19;7269366;19;131615;-42
2023/12/26 10:25:29;;;;;;;372.17;13.48;;;;;;;23.09;54.99;98753.53;7268527;19;130697;-42
2023/12/26 10:27:54;;;;;;;405.73;15.17;;;;;;;23.07;54.94;98747.66;7269390;19;130751;-42
2023/12/26 10:30:21;;;;;;;320.10;11.37;;;;;;;23.06;55.47;98751.25;7267875;19;129594;-41
2023/12/26 10:32:46;;;;;;;326.13;11.83;;;;;;;23.07;55.35;98755.53;7269698;19;132291;-41
2023/12/26 10:35:14;;;;;;;363.77;13.23;;;;;;;22.95;55.13;98738.50;7265836;19;131408;-43
2023/12/26 10:37:40;;;;;;;369.73;13.52;;;;;;;23.02;55.00;98760.47;7268194;19;132724;-40
2023/12/26 10:40:06;;;;;;;345.97;12.53;;;;;;;23.02;55.31;98761.25;7270203;19;131542;-41
2023/12/26 10:42:31;;;;;;;411.33;15.30;;;;;;;23.03;55.78;98756.84;7268172;19;129909;-43
2023/12/26 10:45:00;;;;;;;385.50;14.10;;;;;;;23.04;54.94;98753.22;7269389;19;130686;-40
2023/12/26 10:47:28;;;;;;;398.15;14.65;;;;;;;22.97;55.04;98760.16;7263472;19;132345;-43
2023/12/26 10:49:59;;;;;;;454.45;17.70;;;;;;;22.97;55.49;98789.78;7265596;19;131591;-42
2023/12/26 10:52:26;;;;;;;376.33;13.88;;;;;;;23.00;55.25;98788.63;7270556;19;130009;-41
2023/12/26 10:54:54;;;;;;;383.35;13.93;;;;;;;22.99;55.09;98781.78;7269668;19;131024;-42